createdAt,value
2022-12-04T00:03:25.735Z,1.15
2022-12-04T00:08:30.500Z,1.12
2022-12-04T00:13:34.794Z,1.19
2022-12-04T00:18:38.910Z,1.12
2022-12-04T00:23:44.617Z,1.12
2022-12-04T00:28:48.855Z,1.19
2022-12-04T00:33:52.330Z,1.13
2022-12-04T00:38:57.490Z,1.07
2022-12-04T00:44:01.370Z,1.10
2022-12-04T00:49:04.935Z,1.12
2022-12-04T00:54:09.708Z,1.12
2022-12-04T00:59:13.525Z,1.22
2022-12-04T01:04:16.972Z,1.17
2022-12-04T01:09:21.766Z,1.21
2022-12-04T01:14:25.166Z,1.18
2022-12-04T01:19:28.580Z,1.20
2022-12-04T01:24:33.362Z,1.24
2022-12-04T01:29:36.883Z,1.26
2022-12-04T01:34:40.221Z,1.29
2022-12-04T01:39:45.078Z,1.27
2022-12-04T01:45:21.847Z,1.35
2022-12-04T01:50:25.506Z,1.30
2022-12-04T01:55:31.021Z,1.28
2022-12-04T02:00:34.473Z,1.35
2022-12-04T02:05:37.892Z,1.43
2022-12-04T02:10:52.929Z,1.38
2022-12-04T02:16:24.708Z,1.40
2022-12-04T02:21:35.480Z,1.44
2022-12-04T02:26:49.004Z,1.46
2022-12-04T02:32:00.223Z,1.49
2022-12-04T02:37:10.087Z,1.38
2022-12-04T02:42:17.982Z,1.40
2022-12-04T02:47:25.530Z,1.44
2022-12-04T02:52:33.268Z,1.58
2022-12-04T02:57:41.664Z,1.48
2022-12-04T03:02:49.964Z,1.50
2022-12-04T03:07:58.460Z,1.57
2022-12-04T03:13:06.654Z,1.49
2022-12-04T03:18:16.368Z,1.55
2022-12-04T03:23:25.069Z,1.64
2022-12-04T03:28:34.719Z,1.58
2022-12-04T03:33:43.819Z,1.69
2022-12-04T03:38:55.254Z,1.74
2022-12-04T03:44:05.273Z,1.73
2022-12-04T03:49:17.932Z,1.77
2022-12-04T03:54:25.196Z,1.79
2022-12-04T03:59:35.569Z,1.82
2022-12-04T04:04:42.765Z,1.84
2022-12-04T04:09:48.843Z,1.89
2022-12-04T04:15:13.365Z,1.96
2022-12-04T04:20:40.262Z,1.91
2022-12-04T04:25:45.215Z,1.97
2022-12-04T04:30:48.593Z,1.98
2022-12-04T04:35:58.950Z,1.95
2022-12-04T04:41:10.596Z,1.92
2022-12-04T04:46:19.611Z,1.94
2022-12-04T04:51:25.474Z,1.98
2022-12-04T04:56:28.987Z,2.11
2022-12-04T05:01:32.425Z,2.08
2022-12-04T05:06:37.215Z,1.97
2022-12-04T05:11:40.570Z,2.02
2022-12-04T05:16:43.964Z,2.10
2022-12-04T05:21:48.821Z,2.17
2022-12-04T05:26:52.186Z,2.22
2022-12-04T05:31:55.610Z,2.25
2022-12-04T05:37:00.451Z,2.25
2022-12-04T05:42:03.847Z,2.36
2022-12-04T05:47:07.442Z,2.31
2022-12-04T05:52:12.487Z,2.28
2022-12-04T05:57:15.962Z,2.33
2022-12-04T06:02:19.623Z,2.47
2022-12-04T06:07:24.475Z,2.50
2022-12-04T06:12:27.873Z,2.57
2022-12-04T06:17:31.229Z,2.59
2022-12-04T06:22:36.134Z,2.71
2022-12-04T06:27:39.492Z,2.82
2022-12-04T06:32:42.888Z,2.92
2022-12-04T06:37:47.691Z,2.98
2022-12-04T06:42:51.194Z,3.10
2022-12-04T06:47:54.566Z,3.10
2022-12-04T06:53:03.493Z,3.18
2022-12-04T06:58:09.984Z,3.25
2022-12-04T07:03:13.417Z,3.29
2022-12-04T07:08:18.968Z,3.30
2022-12-04T07:13:22.396Z,3.36
2022-12-04T07:18:25.767Z,3.46
2022-12-04T07:23:30.571Z,3.53
2022-12-04T07:28:34.158Z,3.65
2022-12-04T07:33:38.353Z,3.61
2022-12-04T07:38:43.805Z,3.68
2022-12-04T07:43:47.354Z,3.80
2022-12-04T07:48:50.722Z,3.77
2022-12-04T07:54:02.010Z,3.76
2022-12-04T07:59:06.755Z,3.81
2022-12-04T08:04:12.084Z,4.02
2022-12-04T08:09:16.911Z,3.99
2022-12-04T08:14:20.389Z,4.12
2022-12-04T08:19:23.870Z,4.12
2022-12-04T08:24:28.652Z,4.16
2022-12-04T08:29:32.023Z,4.21
2022-12-04T08:34:35.702Z,4.28
2022-12-04T08:39:40.437Z,4.36
2022-12-04T08:44:43.824Z,4.43
2022-12-04T08:49:47.254Z,4.34
2022-12-04T08:54:52.849Z,4.42
2022-12-04T08:59:56.490Z,4.35
2022-12-04T09:05:00.123Z,4.38
2022-12-04T09:10:05.905Z,4.38
2022-12-04T09:15:10.357Z,4.36
2022-12-04T09:20:15.132Z,4.41
2022-12-04T09:25:20.274Z,4.47
2022-12-04T09:30:23.721Z,4.43
2022-12-04T09:35:27.166Z,4.46
2022-12-04T09:40:39.712Z,4.41
2022-12-04T09:45:50.199Z,4.50
2022-12-04T09:50:55.453Z,4.58
2022-12-04T09:56:05.790Z,4.57
2022-12-04T10:01:22.200Z,4.68
2022-12-04T10:06:29.638Z,4.66
2022-12-04T10:11:46.125Z,4.62
2022-12-04T10:17:11.086Z,4.71
2022-12-04T10:22:22.730Z,4.69
2022-12-04T10:27:32.262Z,4.75
2022-12-04T10:32:36.454Z,4.73
2022-12-04T10:37:43.361Z,4.86
2022-12-04T10:42:54.657Z,4.91
2022-12-04T10:47:58.230Z,4.89
2022-12-04T10:53:01.870Z,4.94
2022-12-04T10:58:17.322Z,5.07
2022-12-04T11:03:26.667Z,5.07
2022-12-04T11:08:36.525Z,4.95
2022-12-04T11:13:42.299Z,4.98
2022-12-04T11:18:51.196Z,5.13
2022-12-04T11:23:55.274Z,5.11
2022-12-04T11:29:02.607Z,5.12
2022-12-04T11:34:09.514Z,5.12
2022-12-04T11:39:19.633Z,5.18
2022-12-04T11:44:27.796Z,5.08
2022-12-04T11:49:33.139Z,5.06
2022-12-04T11:54:45.682Z,5.02
2022-12-04T12:00:03.906Z,5.03
2022-12-04T12:05:45.039Z,5.04
2022-12-04T12:10:57.231Z,5.01
2022-12-04T12:16:10.972Z,4.95
2022-12-04T12:21:22.665Z,4.98
2022-12-04T12:26:35.704Z,5.01
2022-12-04T12:32:10.847Z,4.98
2022-12-04T12:37:23.610Z,4.87
2022-12-04T12:42:32.234Z,4.88
2022-12-04T12:47:41.658Z,4.83
2022-12-04T12:52:49.137Z,4.73
2022-12-04T12:58:01.994Z,4.69
2022-12-04T13:03:19.666Z,4.62
2022-12-04T13:08:27.809Z,4.69
2022-12-04T13:13:34.413Z,4.62
2022-12-04T13:18:43.477Z,4.60
2022-12-04T13:24:01.069Z,4.57
2022-12-04T13:29:14.847Z,4.51
2022-12-04T13:34:42.961Z,4.37
2022-12-04T13:40:29.453Z,4.48
2022-12-04T13:45:35.096Z,4.34
2022-12-04T13:50:41.661Z,4.26
2022-12-04T13:55:45.033Z,4.28
2022-12-04T14:00:48.509Z,4.14
2022-12-04T14:05:53.977Z,4.28
2022-12-04T14:11:04.038Z,4.14
2022-12-04T14:16:18.937Z,4.09
2022-12-04T14:21:24.411Z,4.00
2022-12-04T14:31:56.319Z,4.04
2022-12-04T14:37:02.426Z,4.09
2022-12-04T14:42:08.747Z,3.99
2022-12-04T14:47:23.386Z,3.97
2022-12-04T14:52:38.418Z,3.94
2022-12-04T14:58:24.103Z,4.06
2022-12-04T15:03:28.908Z,4.02
2022-12-04T15:08:34.469Z,4.03
2022-12-04T15:13:39.876Z,4.00
2022-12-04T15:18:53.715Z,4.03
2022-12-04T15:23:58.551Z,4.01
2022-12-04T15:29:04.388Z,3.99
2022-12-04T15:34:10.664Z,3.97
2022-12-04T15:39:20.004Z,3.90
2022-12-04T15:44:26.436Z,3.84
2022-12-04T15:49:31.273Z,3.81
2022-12-04T15:54:37.369Z,3.79
2022-12-04T15:59:40.856Z,3.81
2022-12-04T16:04:45.644Z,3.87
2022-12-04T16:10:01.312Z,3.78
2022-12-04T16:15:07.774Z,3.76
2022-12-04T16:20:12.799Z,3.76
2022-12-04T16:25:18.687Z,3.85
2022-12-04T16:30:22.118Z,3.80
2022-12-04T16:35:25.597Z,3.78
2022-12-04T16:40:30.481Z,3.79
2022-12-04T16:45:36.529Z,3.76
2022-12-04T16:50:39.973Z,3.74
2022-12-04T16:55:47.579Z,3.65
2022-12-04T17:00:56.487Z,3.73
2022-12-04T17:06:01.419Z,3.69
2022-12-04T17:11:06.855Z,3.70
2022-12-04T17:16:12.993Z,3.66
2022-12-04T17:21:19.060Z,3.65
2022-12-04T17:26:24.084Z,3.61
2022-12-04T17:31:28.207Z,3.61
2022-12-04T17:36:31.646Z,3.58
2022-12-04T17:41:36.507Z,3.58
2022-12-04T17:46:40.166Z,3.53
2022-12-04T17:51:45.115Z,3.65
2022-12-04T17:56:54.761Z,3.57
2022-12-04T18:02:01.023Z,3.58
2022-12-04T18:07:04.951Z,3.59
2022-12-04T18:12:09.770Z,3.46
2022-12-04T18:17:13.314Z,3.53
2022-12-04T18:22:17.362Z,3.44
2022-12-04T18:27:22.262Z,3.46
2022-12-04T18:32:25.648Z,3.39
2022-12-04T18:37:29.025Z,3.36
2022-12-04T18:42:33.788Z,3.41
2022-12-04T18:47:37.730Z,3.41
2022-12-04T18:52:41.314Z,3.38
2022-12-04T18:57:46.161Z,3.33
2022-12-04T19:02:50.068Z,3.29
2022-12-04T19:07:53.833Z,3.26
2022-12-04T19:12:58.743Z,3.33
2022-12-04T19:18:02.205Z,3.29
2022-12-04T19:23:05.643Z,3.26
2022-12-04T19:28:10.506Z,3.33
2022-12-04T19:33:13.947Z,3.19
2022-12-04T19:38:17.367Z,3.25
2022-12-04T19:43:22.130Z,3.27
2022-12-04T19:48:25.512Z,3.25
2022-12-04T19:53:28.989Z,3.17
2022-12-04T19:58:35.480Z,3.19
2022-12-04T20:03:38.974Z,3.23
2022-12-04T20:08:43.518Z,3.24
2022-12-04T20:13:49.318Z,3.15
2022-12-04T20:18:53.021Z,3.22
2022-12-04T20:23:56.401Z,3.17
2022-12-04T20:29:02.404Z,3.18
2022-12-04T20:34:07.994Z,3.17
2022-12-04T20:39:12.604Z,3.11
2022-12-04T20:44:19.607Z,3.23
2022-12-04T20:49:23.085Z,3.20
2022-12-04T20:54:26.488Z,3.17
2022-12-04T20:59:31.292Z,3.14
2022-12-04T21:04:37.704Z,3.14
2022-12-04T21:09:41.093Z,3.08
2022-12-04T21:15:03.518Z,3.02
2022-12-04T21:20:08.942Z,3.08
2022-12-04T21:25:12.543Z,3.00
2022-12-04T21:30:17.447Z,2.94
2022-12-04T21:35:20.795Z,2.85
2022-12-04T21:40:24.103Z,2.89
2022-12-04T21:45:28.805Z,2.89
2022-12-04T21:50:32.242Z,2.92
2022-12-04T21:55:35.626Z,2.90
2022-12-04T22:00:40.462Z,2.85
2022-12-04T22:05:44.463Z,2.93
2022-12-04T22:10:48.708Z,2.90
2022-12-04T22:15:53.611Z,2.79
2022-12-04T22:20:56.981Z,2.86
2022-12-04T22:26:06.385Z,2.85
2022-12-04T22:31:12.965Z,2.79
2022-12-04T22:36:18.816Z,2.80
2022-12-04T22:41:24.044Z,2.70
2022-12-04T22:46:28.915Z,2.70
2022-12-04T22:51:32.849Z,2.73
2022-12-04T22:56:36.252Z,2.68
2022-12-04T23:01:41.012Z,2.68
2022-12-04T23:06:44.387Z,2.72
2022-12-04T23:11:52.361Z,2.76
2022-12-04T23:16:57.747Z,2.57
2022-12-04T23:22:01.176Z,2.67
2022-12-04T23:27:04.565Z,2.71
2022-12-04T23:32:09.295Z,2.68
2022-12-04T23:37:12.793Z,2.70
2022-12-04T23:42:16.177Z,2.69
2022-12-04T23:47:21.068Z,2.77
2022-12-04T23:52:24.473Z,2.63
2022-12-04T23:57:30.400Z,2.69
